createdAt,value
2022-12-22T00:01:54.379Z,12.68
2022-12-22T00:04:55.683Z,11.55
2022-12-22T00:07:45.115Z,11.75
2022-12-22T00:10:55.833Z,12.15
2022-12-22T00:13:58.286Z,11.07
2022-12-22T00:16:53.492Z,10.73
2022-12-22T00:19:40.167Z,10.32
2022-12-22T00:22:53.064Z,11.65
2022-12-22T00:25:40.046Z,11.98
2022-12-22T00:28:33.938Z,10.90
2022-12-22T00:31:20.465Z,11.15
2022-12-22T00:34:07.353Z,12.25
2022-12-22T00:36:53.964Z,11.70
2022-12-22T00:39:40.823Z,12.38
2022-12-22T00:42:28.542Z,13.02
2022-12-22T00:45:15.293Z,12.52
2022-12-22T00:48:03.733Z,9.20
2022-12-22T00:50:55.527Z,12.48
2022-12-22T00:53:42.557Z,10.23
2022-12-22T00:56:30.024Z,9.30
2022-12-22T00:59:18.926Z,14.30
2022-12-22T01:02:05.924Z,13.15
2022-12-22T01:04:52.490Z,11.18
2022-12-22T01:07:44.762Z,11.32
2022-12-22T01:10:35.337Z,10.95
2022-12-22T01:13:22.133Z,9.88
2022-12-22T01:16:08.760Z,12.68
2022-12-22T01:18:55.697Z,13.68
2022-12-22T01:21:42.178Z,10.75
2022-12-22T01:24:34.391Z,14.75
2022-12-22T01:27:21.261Z,14.57
2022-12-22T01:30:07.851Z,12.45
2022-12-22T01:32:54.275Z,15.32
2022-12-22T01:35:46.474Z,14.82
2022-12-22T01:38:33.472Z,12.18
2022-12-22T01:41:22.359Z,11.50
2022-12-22T01:44:09.888Z,11.68
2022-12-22T01:47:02.529Z,11.48
2022-12-22T01:49:57.337Z,11.90
2022-12-22T01:52:49.907Z,12.82
2022-12-22T01:55:42.477Z,13.70
2022-12-22T01:58:37.327Z,16.83
2022-12-22T02:01:23.885Z,14.43
2022-12-22T02:04:10.623Z,18.17
2022-12-22T02:07:00.995Z,12.90
2022-12-22T02:10:03.373Z,14.30
2022-12-22T02:12:59.140Z,16.73
2022-12-22T02:15:52.797Z,16.23
2022-12-22T02:19:04.256Z,18.58
2022-12-22T02:22:03.771Z,20.48
2022-12-22T02:25:05.656Z,20.58
2022-12-22T02:30:40.933Z,19.58
2022-12-22T02:33:28.539Z,21.73
2022-12-22T02:36:39.979Z,22.95
2022-12-22T02:39:57.742Z,23.23
2022-12-22T02:43:06.809Z,22.63
2022-12-22T02:46:24.727Z,22.00
2022-12-22T02:49:36.323Z,21.70
2022-12-22T02:52:40.822Z,21.95
2022-12-22T02:55:27.705Z,21.08
2022-12-22T02:58:18.267Z,23.77
2022-12-22T03:01:05.208Z,23.33
2022-12-22T03:03:51.973Z,23.70
2022-12-22T03:06:38.667Z,23.63
2022-12-22T03:09:25.175Z,22.67
2022-12-22T03:12:11.672Z,22.83
2022-12-22T03:14:58.736Z,19.15
2022-12-22T03:17:45.257Z,21.90
2022-12-22T03:20:32.265Z,23.65
2022-12-22T03:23:24.444Z,19.92
2022-12-22T03:25:55.524Z,23.55
2022-12-22T03:28:28.148Z,19.05
2022-12-22T03:31:06.906Z,21.80
2022-12-22T03:33:35.455Z,15.13
2022-12-22T03:36:05.118Z,18.92
2022-12-22T03:38:33.437Z,15.65
2022-12-22T03:41:01.840Z,22.58
2022-12-22T03:43:48.769Z,22.73
2022-12-22T03:46:33.971Z,24.35
2022-12-22T03:49:12.921Z,23.80
2022-12-22T03:51:46.446Z,16.02
2022-12-22T03:54:20.366Z,21.63
2022-12-22T03:56:49.759Z,22.05
2022-12-22T03:59:18.772Z,21.65
2022-12-22T04:01:56.166Z,22.15
2022-12-22T04:04:27.491Z,22.05
2022-12-22T04:06:56.343Z,18.75
2022-12-22T04:09:25.706Z,21.30
2022-12-22T04:12:12.767Z,17.23
2022-12-22T04:14:41.088Z,15.75
2022-12-22T04:17:10.567Z,15.40
2022-12-22T04:19:38.956Z,12.02
2022-12-22T04:22:08.130Z,22.67
2022-12-22T04:24:36.426Z,21.33
2022-12-22T04:27:05.048Z,22.58
2022-12-22T04:29:33.319Z,15.23
2022-12-22T04:32:01.659Z,21.60
2022-12-22T04:34:30.140Z,10.90
2022-12-22T04:37:07.101Z,10.60
2022-12-22T04:39:41.234Z,11.35
2022-12-22T04:42:10.731Z,19.58
2022-12-22T04:44:38.996Z,18.98
2022-12-22T04:47:07.337Z,17.95
2022-12-22T04:49:35.652Z,19.48
2022-12-22T04:52:03.989Z,15.82
2022-12-22T04:54:32.777Z,18.95
2022-12-22T04:57:01.329Z,13.73
2022-12-22T04:59:29.668Z,13.45
2022-12-22T05:01:58.221Z,10.63
2022-12-22T05:04:26.682Z,9.90
2022-12-22T05:06:54.946Z,12.07
2022-12-22T05:09:23.254Z,9.75
2022-12-22T05:11:51.622Z,12.57
2022-12-22T05:14:19.963Z,10.93
2022-12-22T05:16:48.572Z,15.90
2022-12-22T05:19:17.022Z,10.23
2022-12-22T05:21:45.404Z,21.58
2022-12-22T05:24:14.560Z,11.13
2022-12-22T05:26:42.900Z,12.18
2022-12-22T05:29:11.171Z,20.88
2022-12-22T05:31:43.325Z,16.52
2022-12-22T05:34:15.354Z,9.18
2022-12-22T05:36:43.678Z,9.60
2022-12-22T05:39:12.024Z,9.98
2022-12-22T05:41:41.301Z,19.40
2022-12-22T05:44:09.694Z,9.45
2022-12-22T05:46:38.074Z,12.63
2022-12-22T05:49:06.393Z,15.15
2022-12-22T05:51:34.706Z,9.90
2022-12-22T05:54:02.988Z,9.57
2022-12-22T05:56:31.289Z,9.05
2022-12-22T05:58:59.593Z,8.88
2022-12-22T06:01:27.959Z,10.35
2022-12-22T06:04:00.041Z,8.80
2022-12-22T06:06:29.414Z,9.25
2022-12-22T06:08:57.748Z,19.17
2022-12-22T06:11:26.079Z,18.67
2022-12-22T06:13:54.535Z,21.92
2022-12-22T06:16:23.047Z,10.77
2022-12-22T06:18:51.531Z,12.60
2022-12-22T06:21:19.854Z,9.75
2022-12-22T06:23:48.192Z,16.38
2022-12-22T06:26:16.431Z,16.15
2022-12-22T06:28:44.710Z,19.98
2022-12-22T06:31:13.119Z,20.15
2022-12-22T06:33:41.462Z,18.90
2022-12-22T06:36:10.496Z,20.48
2022-12-22T06:38:38.974Z,13.10
2022-12-22T06:41:07.376Z,17.90
2022-12-22T06:43:35.813Z,10.70
2022-12-22T06:46:04.162Z,19.35
2022-12-22T06:48:32.490Z,18.77
2022-12-22T06:51:01.510Z,13.55
2022-12-22T06:53:29.810Z,10.23
2022-12-22T06:55:58.103Z,8.90
2022-12-22T06:58:26.393Z,8.65
2022-12-22T07:00:57.673Z,12.55
2022-12-22T07:03:26.134Z,18.20
2022-12-22T07:05:54.606Z,10.07
2022-12-22T07:08:22.960Z,10.35
2022-12-22T07:11:00.144Z,9.23
2022-12-22T07:13:34.982Z,9.25
2022-12-22T07:16:05.008Z,9.13
2022-12-22T07:18:36.138Z,9.95
2022-12-22T07:21:06.671Z,10.02
2022-12-22T07:23:35.834Z,10.23
2022-12-22T07:26:05.595Z,10.10
2022-12-22T07:28:35.328Z,10.18
2022-12-22T07:31:04.419Z,11.20
2022-12-22T07:33:33.471Z,25.55
2022-12-22T07:36:10.478Z,17.02
2022-12-22T07:38:41.633Z,21.88
2022-12-22T07:41:29.765Z,22.77
2022-12-22T07:44:00.634Z,25.15
2022-12-22T07:46:31.587Z,26.58
2022-12-22T07:49:18.205Z,20.08
2022-12-22T07:51:47.052Z,21.77
2022-12-22T07:54:16.513Z,25.30
2022-12-22T07:56:46.412Z,27.50
2022-12-22T07:59:15.040Z,27.88
2022-12-22T08:01:44.213Z,25.50
2022-12-22T08:04:13.705Z,26.25
2022-12-22T08:06:42.785Z,23.90
2022-12-22T08:09:14.879Z,10.50
2022-12-22T08:11:43.398Z,11.48
2022-12-22T08:14:11.822Z,18.17
2022-12-22T08:16:40.302Z,10.60
2022-12-22T08:19:08.927Z,25.42
2022-12-22T08:21:37.421Z,24.83
2022-12-22T08:24:06.104Z,25.90
2022-12-22T08:26:42.636Z,16.00
2022-12-22T08:29:18.352Z,24.33
2022-12-22T08:31:47.161Z,23.60
2022-12-22T08:34:17.680Z,22.52
2022-12-22T08:36:53.188Z,26.50
2022-12-22T08:39:24.704Z,15.50
2022-12-22T08:44:32.129Z,26.27
2022-12-22T08:47:01.427Z,25.75
2022-12-22T08:49:29.875Z,26.58
2022-12-22T08:51:58.660Z,25.23
2022-12-22T08:54:27.061Z,27.08
2022-12-22T08:56:55.571Z,28.23
2022-12-22T08:59:23.940Z,28.90
2022-12-22T09:01:52.447Z,26.90
2022-12-22T09:04:22.785Z,27.92
2022-12-22T09:06:54.346Z,28.58
2022-12-22T09:11:50.858Z,27.58
2022-12-22T09:14:19.281Z,27.80
2022-12-22T09:16:47.760Z,26.00
2022-12-22T09:19:16.109Z,28.63
2022-12-22T09:21:45.876Z,29.23
2022-12-22T09:24:15.143Z,30.60
2022-12-22T09:26:43.914Z,29.90
2022-12-22T09:29:12.519Z,31.10
2022-12-22T09:31:42.481Z,33.40
2022-12-22T09:34:17.057Z,18.90
2022-12-22T09:36:45.821Z,31.88
2022-12-22T09:39:14.353Z,30.55
2022-12-22T09:41:55.120Z,30.60
2022-12-22T09:44:41.723Z,30.80
2022-12-22T09:47:20.122Z,32.58
2022-12-22T09:49:49.008Z,31.05
2022-12-22T09:53:03.067Z,28.77
2022-12-22T09:55:42.077Z,32.63
2022-12-22T09:58:25.678Z,29.17
2022-12-22T10:01:37.324Z,30.55
2022-12-22T10:04:18.471Z,14.13
2022-12-22T10:07:13.108Z,30.35
2022-12-22T10:09:50.726Z,30.88
2022-12-22T10:12:23.205Z,32.53
2022-12-22T10:14:54.724Z,33.95
2022-12-22T10:19:55.846Z,27.60
2022-12-22T10:22:31.902Z,33.83
2022-12-22T10:25:04.996Z,34.90
2022-12-22T10:27:42.921Z,34.47
2022-12-22T10:30:26.252Z,35.72
2022-12-22T10:33:13.190Z,35.35
2022-12-22T10:35:52.292Z,32.00
2022-12-22T10:38:28.371Z,34.20
2022-12-22T10:41:03.900Z,13.57
2022-12-22T10:43:40.001Z,12.07
2022-12-22T10:46:08.825Z,23.35
2022-12-22T10:48:39.415Z,28.20
2022-12-22T10:51:10.839Z,30.43
2022-12-22T10:53:52.797Z,38.08
2022-12-22T10:56:31.037Z,14.23
2022-12-22T10:59:24.805Z,26.50
2022-12-22T11:01:53.290Z,16.30
2022-12-22T11:04:27.477Z,13.57
2022-12-22T11:06:59.673Z,41.22
2022-12-22T11:09:35.788Z,25.48
2022-12-22T11:12:10.175Z,30.15
2022-12-22T11:15:02.374Z,14.27
2022-12-22T11:17:52.275Z,23.73
2022-12-22T11:20:50.084Z,35.58
2022-12-22T11:23:45.379Z,29.30
2022-12-22T11:26:28.216Z,22.33
2022-12-22T11:29:25.386Z,36.38
2022-12-22T11:32:26.968Z,34.90
2022-12-22T11:35:01.243Z,34.78
2022-12-22T11:38:02.645Z,17.73
2022-12-22T11:40:49.929Z,30.20
2022-12-22T11:43:40.585Z,37.40
2022-12-22T11:46:22.847Z,22.38
2022-12-22T11:49:47.790Z,15.68
2022-12-22T11:52:40.156Z,14.43
2022-12-22T11:55:21.813Z,18.88
2022-12-22T12:00:37.264Z,15.63
2022-12-22T12:03:37.601Z,24.70
2022-12-22T12:06:28.932Z,21.65
2022-12-22T12:09:21.244Z,27.77
2022-12-22T12:12:21.440Z,34.00
2022-12-22T12:15:17.685Z,33.65
2022-12-22T12:18:08.827Z,34.05
2022-12-22T12:20:43.513Z,34.85
2022-12-22T12:23:47.191Z,38.55
2022-12-22T12:26:31.991Z,36.90
2022-12-22T12:29:21.925Z,33.08
2022-12-22T12:32:08.378Z,33.95
2022-12-22T12:34:43.006Z,35.80
2022-12-22T12:37:27.284Z,22.08
2022-12-22T12:40:28.540Z,36.63
2022-12-22T12:42:58.899Z,30.67
2022-12-22T12:45:46.199Z,33.85
2022-12-22T12:48:23.916Z,35.67
2022-12-22T12:50:59.839Z,35.53
2022-12-22T12:53:30.271Z,33.17
2022-12-22T12:56:17.535Z,30.67
2022-12-22T12:58:46.038Z,32.38
2022-12-22T13:01:54.368Z,30.95
2022-12-22T13:04:59.529Z,35.65
2022-12-22T13:08:04.354Z,36.80
2022-12-22T13:10:35.051Z,28.10
2022-12-22T13:13:03.643Z,33.07
2022-12-22T13:15:35.345Z,36.30
2022-12-22T13:18:09.162Z,42.10
2022-12-22T13:20:39.872Z,41.65
2022-12-22T13:23:16.873Z,36.05
2022-12-22T13:26:03.823Z,35.75
2022-12-22T13:28:32.158Z,38.28
2022-12-22T13:31:19.600Z,38.25
2022-12-22T13:33:53.464Z,37.05
2022-12-22T13:36:28.130Z,38.03
2022-12-22T13:39:14.984Z,40.05
2022-12-22T13:41:47.563Z,38.80
2022-12-22T13:44:32.995Z,39.00
2022-12-22T13:47:13.947Z,35.40
2022-12-22T13:50:07.739Z,39.47
2022-12-22T13:52:32.859Z,35.25
2022-12-22T13:55:02.331Z,35.58
2022-12-22T13:57:30.663Z,34.85
2022-12-22T13:59:58.996Z,33.95
2022-12-22T14:02:34.039Z,35.17
2022-12-22T14:05:11.821Z,34.20
2022-12-22T14:07:40.415Z,35.28
2022-12-22T14:10:09.371Z,35.90
2022-12-22T14:12:44.216Z,35.55
2022-12-22T14:15:21.939Z,33.38
2022-12-22T14:17:53.168Z,32.38
2022-12-22T14:23:03.208Z,33.50
2022-12-22T14:25:35.703Z,36.22
2022-12-22T14:28:13.886Z,36.10
2022-12-22T14:30:49.406Z,34.42
2022-12-22T14:33:30.992Z,34.78
2022-12-22T14:36:26.566Z,35.00
2022-12-22T14:39:05.390Z,34.60
2022-12-22T14:41:45.175Z,33.17
2022-12-22T14:44:19.841Z,35.17
2022-12-22T14:47:13.530Z,33.85
2022-12-22T14:49:58.726Z,34.33
2022-12-22T14:52:44.896Z,33.42
2022-12-22T14:55:34.824Z,33.15
2022-12-22T14:58:13.457Z,32.70
2022-12-22T15:00:53.516Z,34.72
2022-12-22T15:03:40.811Z,33.95
2022-12-22T15:06:27.374Z,33.85
2022-12-22T15:09:12.749Z,34.25
2022-12-22T15:11:45.529Z,33.75
2022-12-22T15:14:20.789Z,32.60
2022-12-22T15:16:51.927Z,34.75
2022-12-22T15:19:23.687Z,34.17
2022-12-22T15:21:52.767Z,33.72
2022-12-22T15:24:21.215Z,33.97
2022-12-22T15:26:49.694Z,34.72
2022-12-22T15:29:18.014Z,35.97
2022-12-22T15:31:46.430Z,34.45
2022-12-22T15:34:28.586Z,33.03
2022-12-22T15:36:56.953Z,34.33
2022-12-22T15:39:25.474Z,32.80
2022-12-22T15:41:53.740Z,34.22
2022-12-22T15:44:23.243Z,33.80
2022-12-22T15:46:56.654Z,34.03
2022-12-22T15:49:28.069Z,34.20
2022-12-22T15:52:00.130Z,34.03
2022-12-22T15:54:31.814Z,33.92
2022-12-22T15:57:01.137Z,33.88
2022-12-22T15:59:30.292Z,33.53
2022-12-22T16:02:01.862Z,32.97
2022-12-22T16:04:31.092Z,33.13
2022-12-22T16:07:00.706Z,33.55
2022-12-22T16:09:38.918Z,31.88
2022-12-22T16:12:18.572Z,32.60
2022-12-22T16:14:50.807Z,33.28
2022-12-22T16:17:21.716Z,31.95
2022-12-22T16:19:50.449Z,32.27
2022-12-22T16:22:23.140Z,33.55
2022-12-22T16:27:39.562Z,32.47
2022-12-22T16:30:12.437Z,31.85
2022-12-22T16:32:40.922Z,33.00
2022-12-22T16:35:12.272Z,31.42
2022-12-22T16:37:40.519Z,32.10
2022-12-22T16:40:10.789Z,30.58
2022-12-22T16:45:30.603Z,33.38
2022-12-22T16:48:06.410Z,31.15
2022-12-22T16:50:35.084Z,32.95
2022-12-22T16:53:06.115Z,33.17
2022-12-22T16:55:36.650Z,30.35
2022-12-22T16:58:12.928Z,32.35
2022-12-22T17:00:44.946Z,34.83
2022-12-22T17:03:17.703Z,34.33
2022-12-22T17:05:53.377Z,34.60
2022-12-22T17:08:31.732Z,33.17
2022-12-22T17:11:10.065Z,31.35
2022-12-22T17:13:39.960Z,32.20
2022-12-22T17:16:09.850Z,32.45
2022-12-22T17:18:38.440Z,31.65
2022-12-22T17:21:06.769Z,31.10
2022-12-22T17:23:41.416Z,29.35
2022-12-22T17:26:12.645Z,29.77
2022-12-22T17:28:43.093Z,30.25
2022-12-22T17:31:23.185Z,30.88
2022-12-22T17:33:51.976Z,30.38
2022-12-22T17:36:34.433Z,30.25
2022-12-22T17:39:03.750Z,29.55
2022-12-22T17:41:33.181Z,30.52
2022-12-22T17:44:01.464Z,31.42
2022-12-22T17:46:29.858Z,29.48
2022-12-22T17:48:58.209Z,30.95
2022-12-22T17:51:30.171Z,29.17
2022-12-22T17:53:59.821Z,29.52
2022-12-22T17:56:30.340Z,29.33
2022-12-22T17:58:58.992Z,31.60
2022-12-22T18:01:33.438Z,30.88
2022-12-22T18:04:01.805Z,30.15
2022-12-22T18:06:35.581Z,31.52
2022-12-22T18:09:04.797Z,33.92
2022-12-22T18:11:33.397Z,31.35
2022-12-22T18:14:02.144Z,31.98
2022-12-22T18:16:30.537Z,33.58
2022-12-22T18:18:59.065Z,32.40
2022-12-22T18:21:27.781Z,35.03
2022-12-22T18:23:56.110Z,33.58
2022-12-22T18:26:33.603Z,33.28
2022-12-22T18:29:02.696Z,33.78
2022-12-22T18:31:31.090Z,33.08
2022-12-22T18:33:59.338Z,33.78
2022-12-22T18:36:31.940Z,33.30
2022-12-22T18:39:02.113Z,30.88
2022-12-22T18:41:37.948Z,29.15
2022-12-22T18:44:07.690Z,29.13
2022-12-22T18:46:57.714Z,28.17
2022-12-22T18:49:42.171Z,29.38
2022-12-22T18:52:22.201Z,29.55
2022-12-22T18:54:54.117Z,29.75
2022-12-22T18:57:22.488Z,29.30
2022-12-22T18:59:50.762Z,29.75
2022-12-22T19:02:26.907Z,30.60
2022-12-22T19:04:56.454Z,32.67
2022-12-22T19:07:26.555Z,32.65
2022-12-22T19:09:57.647Z,31.83
2022-12-22T19:12:29.018Z,32.67
2022-12-22T19:15:06.542Z,33.30
2022-12-22T19:17:34.970Z,31.33
2022-12-22T19:20:06.507Z,31.90
2022-12-22T19:25:05.923Z,30.55
2022-12-22T19:27:39.545Z,30.25
2022-12-22T19:30:25.266Z,31.50
2022-12-22T19:33:03.446Z,31.95
2022-12-22T19:35:33.514Z,31.70
2022-12-22T19:38:19.046Z,31.98
2022-12-22T19:40:48.508Z,33.05
2022-12-22T19:43:18.355Z,30.35
2022-12-22T19:45:51.109Z,31.42
2022-12-22T19:48:22.391Z,29.08
2022-12-22T19:50:52.524Z,28.65
2022-12-22T19:53:33.513Z,27.98
2022-12-22T19:56:01.884Z,28.70
2022-12-22T19:58:38.820Z,27.40
2022-12-22T20:01:12.393Z,27.80
2022-12-22T20:03:40.783Z,28.98
2022-12-22T20:06:11.655Z,27.85
2022-12-22T20:08:40.411Z,25.80
2022-12-22T20:11:20.497Z,26.92
2022-12-22T20:13:49.584Z,27.88
2022-12-22T20:16:18.647Z,27.75
2022-12-22T20:18:47.569Z,27.75
2022-12-22T20:21:27.836Z,28.27
2022-12-22T20:23:57.945Z,29.48
2022-12-22T20:26:28.389Z,29.23
2022-12-22T20:28:56.690Z,29.52
2022-12-22T20:31:25.885Z,30.98
2022-12-22T20:33:55.806Z,31.42
2022-12-22T20:36:30.437Z,31.15
2022-12-22T20:39:00.440Z,32.08
2022-12-22T20:41:29.755Z,31.23
2022-12-22T20:43:58.875Z,31.42
2022-12-22T20:46:31.203Z,29.52
2022-12-22T20:49:05.275Z,30.25
2022-12-22T20:51:35.143Z,29.08
2022-12-22T20:54:03.464Z,30.30
2022-12-22T20:56:40.922Z,29.08
2022-12-22T20:59:21.829Z,28.60
2022-12-22T21:01:53.055Z,28.98
2022-12-22T21:04:22.920Z,29.65
2022-12-22T21:06:53.717Z,29.25
2022-12-22T21:09:22.423Z,29.48
2022-12-22T21:11:51.123Z,29.30
2022-12-22T21:14:19.550Z,29.48
2022-12-22T21:16:47.798Z,28.05
2022-12-22T21:19:18.947Z,27.85
2022-12-22T21:21:47.823Z,27.98
2022-12-22T21:24:16.261Z,28.52
2022-12-22T21:26:50.585Z,27.63
2022-12-22T21:29:25.244Z,27.38
2022-12-22T21:31:53.734Z,26.90
2022-12-22T21:34:22.072Z,27.02
2022-12-22T21:36:56.258Z,26.98
2022-12-22T21:39:42.458Z,27.10
2022-12-22T21:42:16.916Z,27.42
2022-12-22T21:44:46.160Z,28.98
2022-12-22T21:47:17.794Z,27.70
2022-12-22T21:49:46.270Z,27.10
2022-12-22T21:52:14.469Z,27.08
2022-12-22T21:54:42.971Z,26.58
2022-12-22T21:57:17.117Z,26.67
2022-12-22T21:59:45.428Z,26.20
2022-12-22T22:02:19.768Z,27.13
2022-12-22T22:04:54.252Z,26.88
2022-12-22T22:07:23.527Z,26.02
2022-12-22T22:09:51.856Z,26.85
2022-12-22T22:12:37.255Z,26.88
2022-12-22T22:15:07.650Z,25.95
2022-12-22T22:17:35.929Z,25.50
2022-12-22T22:20:06.615Z,25.77
2022-12-22T22:22:35.184Z,25.30
2022-12-22T22:25:03.638Z,24.73
2022-12-22T22:27:31.968Z,25.83
2022-12-22T22:30:00.408Z,25.20
2022-12-22T22:32:28.836Z,24.50
2022-12-22T22:34:57.161Z,25.17
2022-12-22T22:37:25.840Z,24.48
2022-12-22T22:39:54.161Z,24.58
2022-12-22T22:42:22.615Z,25.27
2022-12-22T22:44:50.958Z,25.13
2022-12-22T22:47:19.215Z,23.80
2022-12-22T22:49:47.454Z,25.70
2022-12-22T22:52:16.597Z,24.02
2022-12-22T22:54:45.052Z,25.10
2022-12-22T22:57:13.489Z,25.15
2022-12-22T22:59:41.810Z,24.92
2022-12-22T23:02:11.793Z,25.13
2022-12-22T23:04:40.172Z,24.45
2022-12-22T23:07:08.447Z,24.42
2022-12-22T23:09:36.668Z,23.95
2022-12-22T23:12:05.377Z,22.75
2022-12-22T23:14:33.792Z,24.90
2022-12-22T23:17:02.138Z,24.10
2022-12-22T23:19:30.428Z,24.10
2022-12-22T23:21:59.046Z,22.95
2022-12-22T23:24:27.489Z,22.05
2022-12-22T23:26:55.741Z,23.73
2022-12-22T23:29:24.123Z,22.55
2022-12-22T23:31:52.441Z,22.92
2022-12-22T23:34:21.234Z,22.85
2022-12-22T23:36:49.547Z,23.63
2022-12-22T23:39:18.131Z,23.60
2022-12-22T23:41:47.272Z,22.48
2022-12-22T23:44:15.490Z,23.17
2022-12-22T23:46:43.782Z,23.35
2022-12-22T23:49:13.470Z,23.40
2022-12-22T23:51:41.765Z,22.92
2022-12-22T23:54:09.965Z,22.42
2022-12-22T23:56:38.262Z,23.15
2022-12-22T23:59:06.534Z,23.40
